createdAt,value
2022-11-23T00:07:51.049Z,6.37
2022-11-23T00:27:51.054Z,6.44
2022-11-23T00:47:51.069Z,6.56
2022-11-23T01:07:51.063Z,6.58
2022-11-23T01:27:50.961Z,6.45
2022-11-23T01:47:50.946Z,6.42
2022-11-23T02:07:51.109Z,6.42
2022-11-23T02:27:51.041Z,6.36
2022-11-23T02:47:50.988Z,6.23
2022-11-23T03:07:50.897Z,6.07
2022-11-23T03:27:51.005Z,5.96
2022-11-23T03:47:50.948Z,5.85
2022-11-23T04:07:50.955Z,5.82
2022-11-23T04:27:50.950Z,5.68
2022-11-23T04:47:50.882Z,5.39
2022-11-23T05:07:50.806Z,5.44
2022-11-23T05:27:50.943Z,5.33
2022-11-23T05:47:50.850Z,5.32
2022-11-23T06:07:50.820Z,5.55
2022-11-23T06:27:50.854Z,5.61
2022-11-23T06:47:50.826Z,5.62
2022-11-23T07:07:50.832Z,5.66
2022-11-23T07:27:50.761Z,5.82
2022-11-23T07:47:50.780Z,5.94
2022-11-23T08:07:50.894Z,6.08
2022-11-23T08:27:50.708Z,6.23
2022-11-23T08:47:50.792Z,6.37
2022-11-23T09:07:50.862Z,6.55
2022-11-23T09:27:50.788Z,6.73
2022-11-23T09:47:50.743Z,6.94
2022-11-23T10:07:50.643Z,7.48
2022-11-23T10:27:50.713Z,7.81
2022-11-23T10:47:50.683Z,8.04
2022-11-23T11:07:50.634Z,8.18
2022-11-23T11:27:50.537Z,8.36
2022-11-23T11:47:50.536Z,8.37
2022-11-23T12:07:50.533Z,8.49
2022-11-23T12:27:50.482Z,8.65
2022-11-23T12:47:50.488Z,8.52
2022-11-23T13:07:50.513Z,8.71
2022-11-23T13:27:50.599Z,8.44
2022-11-23T13:47:50.608Z,8.36
2022-11-23T14:07:50.577Z,8.10
2022-11-23T14:27:50.566Z,7.92
2022-11-23T14:47:50.542Z,7.77
2022-11-23T15:07:50.524Z,7.54
2022-11-23T15:27:50.337Z,7.31
2022-11-23T15:47:50.487Z,7.04
2022-11-23T16:07:50.454Z,6.85
2022-11-23T16:27:50.433Z,6.63
2022-11-23T16:47:50.397Z,6.43
2022-11-23T17:07:50.385Z,6.29
2022-11-23T17:27:50.463Z,6.16
2022-11-23T17:47:50.416Z,5.91
2022-11-23T18:07:50.325Z,5.74
2022-11-23T18:27:50.317Z,5.58
2022-11-23T18:47:50.250Z,5.42
2022-11-23T19:07:50.247Z,5.28
2022-11-23T19:27:50.178Z,5.28
2022-11-23T19:47:50.152Z,5.18
2022-11-23T20:07:50.305Z,5.17
2022-11-23T20:27:50.159Z,5.44
2022-11-23T20:47:50.107Z,5.61
2022-11-23T21:07:50.112Z,5.81
2022-11-23T21:27:50.314Z,5.67
2022-11-23T21:47:50.074Z,5.75
2022-11-23T22:07:50.229Z,5.72
2022-11-23T22:27:50.045Z,5.79
2022-11-23T22:47:50.021Z,5.84
2022-11-23T23:07:50.022Z,6.02
2022-11-23T23:27:50.015Z,6.18
2022-11-23T23:47:50.001Z,6.42
